Time;durP1;ratioP1;P1;durP2;ratioP2;P2;SDS_P1;SDS_P2;PMS_P1;PMS_P2;Temp;Humidity;BMP_temperature;BMP_pressure;BME280_temperature;BME280_humidity;BME280_pressure;Samples;Min_cycle;Max_cycle;Signal;HPM_P1;HPM_P2
2022/12/27 00:00:58;;;;;;;3.60;2.40;;;17.20;99.90;;;;;;4209416;28;20210;-81
2022/12/27 00:03:00;;;;;;;5.70;2.58;;;17.10;99.90;;;;;;4211041;28;20210;-81
2022/12/27 00:05:02;;;;;;;4.88;2.88;;;17.10;99.90;;;;;;4205832;28;20287;-81
2022/12/27 00:07:05;;;;;;;3.58;2.30;;;17.20;99.90;;;;;;4213886;28;20572;-81
2022/12/27 00:09:07;;;;;;;4.45;2.53;;;17.10;99.90;;;;;;4208532;28;20214;-81
2022/12/27 00:11:11;;;;;;;4.15;2.40;;;17.20;99.90;;;;;;4201674;28;20215;-81
2022/12/27 00:13:15;;;;;;;3.20;2.20;;;17.10;99.90;;;;;;4208099;28;20219;-81
2022/12/27 00:15:17;;;;;;;2.92;2.60;;;17.10;99.90;;;;;;4204420;28;20207;-81
2022/12/27 00:17:19;;;;;;;3.55;2.10;;;17.10;99.90;;;;;;4213156;28;20260;-81
2022/12/27 00:19:22;;;;;;;4.57;2.72;;;17.10;99.90;;;;;;4206293;28;20284;-81
2022/12/27 00:21:24;;;;;;;4.53;2.60;;;17.10;99.90;;;;;;4203546;28;20335;-81
2022/12/27 00:23:27;;;;;;;4.68;2.40;;;17.10;99.90;;;;;;4207450;28;20211;-81
2022/12/27 00:25:30;;;;;;;2.80;2.10;;;17.10;99.90;;;;;;4213647;28;20370;-81
2022/12/27 00:27:32;;;;;;;4.43;2.70;;;17.10;99.90;;;;;;4200688;28;20273;-81
2022/12/27 00:29:36;;;;;;;3.38;2.28;;;17.10;99.90;;;;;;4200323;28;20627;-81
2022/12/27 00:31:38;;;;;;;4.72;2.60;;;17.10;99.90;;;;;;4206713;28;20223;-81
2022/12/27 00:33:42;;;;;;;3.97;2.50;;;17.10;99.90;;;;;;4213168;28;20982;-81
2022/12/27 00:35:45;;;;;;;6.10;2.97;;;17.10;99.90;;;;;;4199532;28;20265;-81
2022/12/27 00:37:47;;;;;;;5.15;2.70;;;17.10;99.90;;;;;;4212879;28;20290;-81
2022/12/27 00:39:49;;;;;;;4.15;2.47;;;17.10;99.90;;;;;;4213530;28;20219;-81
2022/12/27 00:41:52;;;;;;;4.07;2.33;;;17.10;99.90;;;;;;4213382;28;20669;-81
2022/12/27 00:43:54;;;;;;;4.43;2.40;;;17.00;99.90;;;;;;4213576;28;20375;-81
2022/12/27 00:45:58;;;;;;;2.90;2.10;;;17.00;99.90;;;;;;4213258;28;20207;-81
2022/12/27 00:48:00;;;;;;;4.78;2.42;;;17.00;99.90;;;;;;4204765;28;20214;-81
2022/12/27 00:50:03;;;;;;;2.83;2.20;;;17.10;99.90;;;;;;4196902;28;20261;-81
2022/12/27 00:52:05;;;;;;;4.90;3.08;;;17.10;99.90;;;;;;4204933;28;20215;-81
2022/12/27 00:54:08;;;;;;;3.70;2.15;;;17.10;99.90;;;;;;4202283;28;20218;-81
2022/12/27 00:56:12;;;;;;;3.03;2.10;;;17.10;99.90;;;;;;4213494;28;20218;-81
2022/12/27 00:58:14;;;;;;;4.90;2.50;;;17.10;99.90;;;;;;4210788;28;20227;-81
2022/12/27 01:00:17;;;;;;;4.53;2.42;;;17.10;99.90;;;;;;4199322;28;20253;-81
2022/12/27 01:02:20;;;;;;;3.58;2.65;;;17.00;99.90;;;;;;4203803;28;20219;-81
2022/12/27 01:04:23;;;;;;;3.25;2.00;;;17.00;99.90;;;;;;4209818;28;20752;-81
2022/12/27 01:06:28;;;;;;;2.95;2.15;;;17.00;99.90;;;;;;4212629;28;20249;-81
2022/12/27 01:08:32;;;;;;;3.40;2.20;;;17.00;99.90;;;;;;4202589;28;20232;-81
2022/12/27 01:10:34;;;;;;;4.80;2.45;;;17.00;99.90;;;;;;4210812;28;20651;-81
2022/12/27 01:12:37;;;;;;;3.20;2.15;;;17.00;99.90;;;;;;4205196;28;20215;-81
2022/12/27 01:14:39;;;;;;;4.97;2.50;;;17.00;99.90;;;;;;4207860;28;20741;-81
2022/12/27 01:16:42;;;;;;;3.42;2.38;;;17.00;99.90;;;;;;4204356;28;20240;-81
2022/12/27 01:18:47;;;;;;;4.82;2.42;;;17.00;99.90;;;;;;4215916;28;20210;-81
2022/12/27 01:20:49;;;;;;;4.55;2.72;;;17.00;99.90;;;;;;4215710;28;20211;-81
2022/12/27 01:22:54;;;;;;;2.88;2.20;;;17.00;99.90;;;;;;4215701;28;20620;-81
2022/12/27 01:24:56;;;;;;;4.53;2.53;;;17.00;99.90;;;;;;4210745;28;20235;-81
2022/12/27 01:26:59;;;;;;;4.55;2.70;;;16.90;99.90;;;;;;4199122;28;20706;-81
2022/12/27 01:29:01;;;;;;;4.95;2.53;;;17.00;99.90;;;;;;4198641;28;20676;-81
2022/12/27 01:31:07;;;;;;;3.85;2.50;;;17.00;99.90;;;;;;4214846;28;20271;-81
2022/12/27 01:33:09;;;;;;;3.95;2.20;;;17.00;99.90;;;;;;4211776;28;20232;-81
2022/12/27 01:35:13;;;;;;;4.90;2.58;;;17.00;99.90;;;;;;4215719;28;20207;-81
2022/12/27 01:37:16;;;;;;;3.95;2.40;;;17.00;99.90;;;;;;4215907;28;20259;-81
2022/12/27 01:39:18;;;;;;;4.07;2.40;;;16.90;99.90;;;;;;4215420;28;20271;-81
2022/12/27 01:43:43;;;;;;;4.50;2.25;;;17.00;99.90;;;;;;4213581;28;20638;-81
2022/12/27 01:45:47;;;;;;;3.97;2.05;;;16.90;99.90;;;;;;4203410;28;20234;-81
2022/12/27 01:47:54;;;;;;;4.22;2.67;;;17.00;99.90;;;;;;4215835;28;20206;-81
2022/12/27 01:50:03;;;;;;;3.50;2.17;;;16.90;99.90;;;;;;4198874;28;20260;-81
2022/12/27 01:52:08;;;;;;;4.15;2.30;;;16.90;99.90;;;;;;4199791;28;20236;-81
2022/12/27 01:54:10;;;;;;;2.88;2.00;;;16.90;99.90;;;;;;4201822;28;20222;-74
2022/12/27 01:56:20;;;;;;;3.50;2.30;;;16.90;99.90;;;;;;4199531;28;20208;-74
2022/12/27 01:58:27;;;;;;;5.70;2.65;;;16.90;99.90;;;;;;4208889;28;20288;-74
2022/12/27 02:00:29;;;;;;;4.80;2.15;;;16.90;99.90;;;;;;4207134;28;20268;-74
2022/12/27 02:02:32;;;;;;;4.18;2.05;;;16.90;99.90;;;;;;4206977;28;20207;-74
2022/12/27 02:04:35;;;;;;;3.40;2.42;;;16.90;99.90;;;;;;4208984;28;20214;-74
2022/12/27 02:06:39;;;;;;;2.60;2.05;;;16.90;99.90;;;;;;4213859;28;20210;-74
2022/12/27 02:08:48;;;;;;;4.60;2.30;;;16.90;99.90;;;;;;4214221;28;20613;-74
2022/12/27 02:10:52;;;;;;;4.95;2.20;;;16.90;99.90;;;;;;4205599;28;20214;-74
2022/12/27 02:12:55;;;;;;;3.03;1.95;;;16.90;99.90;;;;;;4197623;28;20261;-74
2022/12/27 02:15:00;;;;;;;3.40;2.03;;;16.90;99.90;;;;;;4209927;28;20214;-74
2022/12/27 02:17:05;;;;;;;3.53;2.15;;;16.90;99.90;;;;;;4213514;28;20549;-74
2022/12/27 02:19:18;;;;;;;3.55;2.00;;;16.80;99.90;;;;;;4213700;28;20323;-74
2022/12/27 02:21:55;;;;;;;4.75;2.22;;;16.90;99.90;;;;;;4202602;28;20215;-74
2022/12/27 02:24:13;;;;;;;2.80;1.83;;;16.80;99.90;;;;;;4213417;28;20256;-74
2022/12/27 02:26:39;;;;;;;2.90;2.00;;;16.80;99.90;;;;;;4213014;28;20272;-74
2022/12/27 02:29:06;;;;;;;3.83;1.92;;;16.80;99.90;;;;;;4213851;28;20214;-73
2022/12/27 02:31:14;;;;;;;3.63;2.00;;;16.80;99.90;;;;;;4213342;28;20268;-74
2022/12/27 02:33:22;;;;;;;3.42;2.20;;;16.80;99.90;;;;;;4213319;28;20647;-74
2022/12/27 02:35:28;;;;;;;3.53;2.25;;;16.80;99.90;;;;;;4214266;28;20251;-74
2022/12/27 02:37:35;;;;;;;2.83;2.15;;;16.80;99.90;;;;;;4203108;28;20693;-74
2022/12/27 02:39:41;;;;;;;2.78;2.20;;;16.80;99.90;;;;;;4213349;28;20275;-74
2022/12/27 02:54:18;;;;;;;2.53;1.85;;;16.80;99.90;;;;;;4176476;28;20202;-74
2022/12/27 02:59:09;;;;;;;3.83;1.85;;;16.80;99.90;;;;;;4213410;28;20618;-74
2022/12/27 03:03:52;;;;;;;3.65;2.08;;;16.70;99.90;;;;;;4212972;28;20206;-74
2022/12/27 03:08:48;;;;;;;1.92;1.70;;;16.70;99.90;;;;;;4201772;28;20199;-74
2022/12/27 03:16:09;;;;;;;5.32;2.53;;;16.70;99.90;;;;;;4213083;28;20589;-74
2022/12/27 03:18:14;;;;;;;3.65;2.00;;;16.70;99.90;;;;;;4212802;28;20287;-74
2022/12/27 03:27:27;;;;;;;2.65;1.80;;;16.70;99.90;;;;;;4213127;28;20596;-74
2022/12/27 03:39:04;;;;;;;2.47;1.90;;;16.70;99.90;;;;;;4206970;28;20195;-74
2022/12/27 03:43:31;;;;;;;3.40;1.90;;;16.70;99.90;;;;;;4211277;28;20662;-74
2022/12/27 03:48:06;;;;;;;2.50;1.67;;;16.70;99.90;;;;;;4195098;28;20668;-74
2022/12/27 03:50:12;;;;;;;3.97;2.20;;;16.70;99.90;;;;;;4211207;28;20250;-74
2022/12/27 03:52:18;;;;;;;3.78;1.90;;;16.70;99.90;;;;;;4211968;28;20214;-74
2022/12/27 03:54:26;;;;;;;2.65;1.77;;;16.70;99.90;;;;;;4212887;28;20252;-74
2022/12/27 03:56:29;;;;;;;3.45;1.83;;;16.70;99.90;;;;;;4209657;28;20599;-74
2022/12/27 03:58:31;;;;;;;3.17;1.65;;;16.70;99.90;;;;;;4208121;28;20252;-73
2022/12/27 04:00:34;;;;;;;3.13;1.80;;;16.70;99.90;;;;;;4200584;28;20267;-74
2022/12/27 04:02:36;;;;;;;4.70;2.13;;;16.70;99.90;;;;;;4207656;28;20215;-74
2022/12/27 04:04:40;;;;;;;2.47;1.60;;;16.70;99.90;;;;;;4196507;28;20211;-74
2022/12/27 04:06:43;;;;;;;3.30;1.60;;;16.60;99.90;;;;;;4207293;28;20235;-74
2022/12/27 04:34:42;;;;;;;3.03;1.80;;;16.60;99.90;;;;;;4213236;28;20190;-74
2022/12/27 04:36:46;;;;;;;3.13;1.80;;;16.60;99.90;;;;;;4209356;28;20269;-74
2022/12/27 04:38:48;;;;;;;2.93;1.50;;;16.60;99.90;;;;;;4198378;28;20258;-74
2022/12/27 04:54:57;;;;;;;2.92;1.77;;;16.50;99.90;;;;;;4200135;28;20601;-74
2022/12/27 04:56:59;;;;;;;3.53;1.70;;;16.50;99.90;;;;;;4206675;28;20261;-74
2022/12/27 05:03:42;;;;;;;3.38;2.13;;;16.50;99.90;;;;;;4215013;28;20240;-74
2022/12/27 05:05:46;;;;;;;2.67;1.63;;;16.50;99.90;;;;;;4208375;28;20214;-74
2022/12/27 05:14:49;;;;;;;2.75;1.95;;;16.50;99.90;;;;;;4207351;28;20195;-74
2022/12/27 05:16:52;;;;;;;2.88;1.90;;;16.50;99.90;;;;;;4203419;28;20249;-74
2022/12/27 05:18:54;;;;;;;5.50;2.20;;;16.50;99.90;;;;;;4206930;28;20210;-74
2022/12/27 05:21:02;;;;;;;3.15;1.52;;;16.50;99.90;;;;;;4215118;28;20216;-74
2022/12/27 05:25:33;;;;;;;3.20;1.50;;;16.50;99.90;;;;;;4215122;28;20206;-74
2022/12/27 05:27:35;;;;;;;3.38;1.67;;;16.50;99.90;;;;;;4201455;28;20641;-74
2022/12/27 05:29:38;;;;;;;3.47;2.05;;;16.50;99.90;;;;;;4211851;28;20215;-74
2022/12/27 05:31:40;;;;;;;3.35;1.73;;;16.50;99.90;;;;;;4201000;28;20264;-74
2022/12/27 05:33:42;;;;;;;3.28;1.80;;;16.50;99.90;;;;;;4208971;28;20679;-74
2022/12/27 05:35:45;;;;;;;2.50;1.63;;;16.50;99.90;;;;;;4200688;28;20211;-74
2022/12/27 05:37:47;;;;;;;3.20;1.80;;;16.50;99.90;;;;;;4214748;28;20614;-74
2022/12/27 05:39:51;;;;;;;2.70;1.63;;;16.50;99.90;;;;;;4214532;28;20218;-74
2022/12/27 05:41:53;;;;;;;3.75;1.55;;;16.50;99.90;;;;;;4199051;28;20219;-74
2022/12/27 05:43:57;;;;;;;2.90;1.80;;;16.50;99.90;;;;;;4213003;28;20280;-74
2022/12/27 05:46:03;;;;;;;3.78;1.70;;;16.50;99.90;;;;;;4197618;28;20211;-74
2022/12/27 05:48:06;;;;;;;2.33;1.70;;;16.50;99.90;;;;;;4213381;28;20211;-74
2022/12/27 05:50:09;;;;;;;3.58;2.08;;;16.50;99.90;;;;;;4198790;28;20284;-74
2022/12/27 05:52:12;;;;;;;2.22;1.42;;;16.50;99.90;;;;;;4214432;28;20215;-74
2022/12/27 05:54:14;;;;;;;3.13;1.58;;;16.50;99.90;;;;;;4212439;28;20218;-74
2022/12/27 05:56:19;;;;;;;2.70;1.77;;;16.40;99.90;;;;;;4200148;28;20207;-74
2022/12/27 05:58:22;;;;;;;2.38;1.70;;;16.40;99.90;;;;;;4211668;28;20305;-74
2022/12/27 06:00:24;;;;;;;3.00;1.75;;;16.40;99.90;;;;;;4210334;28;20215;-74
2022/12/27 06:02:26;;;;;;;2.40;1.50;;;16.50;99.90;;;;;;4205113;28;20207;-74
2022/12/27 06:04:29;;;;;;;3.45;1.70;;;16.40;99.90;;;;;;4209813;28;20265;-74
2022/12/27 06:06:31;;;;;;;2.40;1.63;;;16.50;99.90;;;;;;4207903;28;20620;-74
2022/12/27 06:08:34;;;;;;;2.72;1.83;;;16.50;99.90;;;;;;4197773;28;20211;-74
2022/12/27 06:10:36;;;;;;;4.32;1.90;;;16.50;99.90;;;;;;4200503;28;20211;-74
2022/12/27 06:12:40;;;;;;;3.33;1.50;;;16.50;99.90;;;;;;4196839;28;20626;-74
2022/12/27 06:14:42;;;;;;;3.03;1.70;;;16.60;99.90;;;;;;4209045;28;20219;-74
2022/12/27 06:16:44;;;;;;;2.88;1.63;;;16.50;99.90;;;;;;4213716;28;20214;-74
2022/12/27 06:18:47;;;;;;;3.00;1.55;;;16.60;99.90;;;;;;4213974;28;20211;-74
2022/12/27 06:20:49;;;;;;;3.35;1.70;;;16.60;99.90;;;;;;4213709;28;20264;-74
2022/12/27 06:22:52;;;;;;;2.85;1.30;;;16.60;99.90;;;;;;4213736;28;20279;-74
2022/12/27 06:24:54;;;;;;;2.22;1.50;;;16.60;99.90;;;;;;4213912;28;20259;-74
2022/12/27 06:26:56;;;;;;;2.10;1.58;;;16.60;99.90;;;;;;4213640;28;20242;-74
2022/12/27 06:29:00;;;;;;;2.70;1.80;;;16.70;99.90;;;;;;4213769;28;20206;-74
2022/12/27 06:31:03;;;;;;;4.65;1.77;;;16.70;99.90;;;;;;4213305;28;20210;-74
2022/12/27 06:33:05;;;;;;;2.97;1.60;;;16.70;99.90;;;;;;4214134;28;20239;-74
2022/12/27 06:35:10;;;;;;;3.13;1.80;;;16.70;99.90;;;;;;4204511;28;20602;-74
2022/12/27 06:37:12;;;;;;;2.17;1.67;;;16.70;99.90;;;;;;4203062;28;20206;-74
2022/12/27 06:39:14;;;;;;;4.00;1.80;;;16.70;99.90;;;;;;4213046;28;20636;-74
2022/12/27 06:41:18;;;;;;;2.92;1.90;;;16.70;99.90;;;;;;4200268;28;20226;-74
2022/12/27 06:43:20;;;;;;;2.70;1.38;;;16.70;99.90;;;;;;4213681;28;20219;-74
2022/12/27 06:45:24;;;;;;;2.17;1.58;;;16.80;99.90;;;;;;4213505;28;20218;-74
2022/12/27 06:47:26;;;;;;;3.92;1.30;;;16.70;99.90;;;;;;4201551;28;20348;-74
2022/12/27 06:49:29;;;;;;;3.22;1.45;;;16.70;99.90;;;;;;4198227;28;20231;-74
2022/12/27 06:51:33;;;;;;;2.78;1.30;;;16.80;99.90;;;;;;4200878;28;20203;-74
2022/12/27 06:53:36;;;;;;;2.83;1.30;;;16.70;99.90;;;;;;4205043;28;20655;-74
2022/12/27 06:55:38;;;;;;;2.83;1.67;;;16.80;99.90;;;;;;4212855;28;20608;-74
2022/12/27 06:57:40;;;;;;;2.88;1.50;;;16.80;99.90;;;;;;4211950;28;20234;-74
2022/12/27 06:59:43;;;;;;;3.42;1.60;;;16.80;99.90;;;;;;4213232;28;20690;-74
2022/12/27 07:01:46;;;;;;;2.92;1.65;;;16.80;99.90;;;;;;4207978;28;20267;-74
2022/12/27 07:03:50;;;;;;;1.70;1.20;;;16.90;99.90;;;;;;4213249;28;20634;-74
2022/12/27 07:05:52;;;;;;;2.30;1.40;;;16.80;99.90;;;;;;4212772;28;20650;-74
2022/12/27 07:07:55;;;;;;;3.63;1.50;;;16.80;99.90;;;;;;4212982;28;20676;-74
2022/12/27 07:09:57;;;;;;;3.25;1.65;;;16.90;99.90;;;;;;4212828;28;20260;-74
2022/12/27 07:11:59;;;;;;;3.38;1.70;;;16.90;99.90;;;;;;4209056;28;20218;-74
2022/12/27 07:14:02;;;;;;;3.15;1.48;;;16.90;99.90;;;;;;4212874;28;20268;-74
2022/12/27 07:16:05;;;;;;;2.45;1.45;;;16.90;99.90;;;;;;4212297;28;20210;-74
2022/12/27 07:18:09;;;;;;;2.67;1.50;;;16.90;99.90;;;;;;4210319;28;20281;-74
2022/12/27 07:20:12;;;;;;;2.40;1.50;;;16.90;99.90;;;;;;4202674;28;20214;-74
2022/12/27 07:22:14;;;;;;;3.63;1.73;;;16.90;99.90;;;;;;4209983;28;20661;-74
2022/12/27 07:24:17;;;;;;;3.25;1.50;;;16.90;99.90;;;;;;4196394;28;20281;-74
2022/12/27 07:26:22;;;;;;;2.50;1.58;;;17.00;99.90;;;;;;4211603;28;20222;-74
2022/12/27 07:28:24;;;;;;;2.35;1.30;;;17.00;99.90;;;;;;4207844;28;20242;-74
2022/12/27 07:30:28;;;;;;;3.33;1.60;;;16.90;99.90;;;;;;4202100;28;20222;-74
2022/12/27 07:32:30;;;;;;;2.22;1.35;;;17.00;99.90;;;;;;4205545;28;20260;-74
2022/12/27 07:34:34;;;;;;;2.63;1.33;;;17.00;99.90;;;;;;4212020;28;20259;-74
2022/12/27 07:36:39;;;;;;;2.20;1.42;;;17.00;99.90;;;;;;4204589;28;20219;-74
2022/12/27 07:38:41;;;;;;;4.53;1.70;;;17.00;99.90;;;;;;4202015;28;20264;-74
2022/12/27 07:40:44;;;;;;;2.60;1.50;;;17.00;99.90;;;;;;4197708;28;20215;-74
2022/12/27 07:42:47;;;;;;;2.58;1.45;;;17.00;99.90;;;;;;4212640;28;20260;-74
2022/12/27 07:44:49;;;;;;;2.97;1.60;;;17.00;99.90;;;;;;4212708;28;20210;-74
2022/12/27 07:46:51;;;;;;;2.53;1.55;;;17.00;99.90;;;;;;4205513;28;20670;-74
2022/12/27 07:48:55;;;;;;;2.20;1.35;;;17.00;99.90;;;;;;4206682;28;20278;-74
2022/12/27 07:50:59;;;;;;;2.78;1.58;;;17.10;99.90;;;;;;4212301;28;20264;-74
2022/12/27 07:53:01;;;;;;;2.00;1.50;;;17.00;99.90;;;;;;4202485;28;20211;-74
2022/12/27 07:55:04;;;;;;;2.00;1.30;;;17.00;99.90;;;;;;4200623;28;20272;-74
2022/12/27 07:57:07;;;;;;;2.65;1.40;;;17.10;99.90;;;;;;4213021;28;21067;-74
2022/12/27 07:59:12;;;;;;;3.45;1.65;;;17.10;99.90;;;;;;4209481;28;20234;-74
2022/12/27 08:01:16;;;;;;;2.05;1.48;;;17.10;99.90;;;;;;4212777;28;20218;-74
2022/12/27 08:03:19;;;;;;;1.88;1.40;;;17.10;99.90;;;;;;4212535;28;20219;-74
2022/12/27 08:05:21;;;;;;;3.13;1.60;;;17.10;99.90;;;;;;4201590;28;20619;-74
2022/12/27 08:07:25;;;;;;;3.55;1.50;;;17.10;99.90;;;;;;4203687;28;20256;-74
2022/12/27 08:09:32;;;;;;;2.30;1.30;;;17.10;99.90;;;;;;4213383;28;20210;-74
2022/12/27 08:11:34;;;;;;;2.08;1.60;;;17.10;99.90;;;;;;4201419;28;20218;-74
2022/12/27 08:13:37;;;;;;;2.22;1.40;;;17.10;99.90;;;;;;4207661;28;20210;-74
2022/12/27 08:15:42;;;;;;;2.58;1.40;;;17.10;99.90;;;;;;4212781;28;20937;-74
2022/12/27 08:17:44;;;;;;;3.53;1.40;;;17.10;99.90;;;;;;4213538;28;20227;-74
2022/12/27 08:19:47;;;;;;;2.70;1.42;;;17.10;99.90;;;;;;4215414;28;20214;-74
2022/12/27 08:21:49;;;;;;;2.10;1.45;;;17.20;99.90;;;;;;4205966;28;20214;-74
2022/12/27 08:23:53;;;;;;;2.88;1.20;;;17.10;99.90;;;;;;4208425;28;20218;-74
2022/12/27 08:25:56;;;;;;;1.92;1.35;;;17.10;99.90;;;;;;4215460;28;20268;-74
2022/12/27 08:28:03;;;;;;;2.67;1.50;;;17.10;99.90;;;;;;4214838;28;20292;-74
2022/12/27 08:30:07;;;;;;;2.38;1.33;;;17.20;99.90;;;;;;4205543;28;20217;-74
2022/12/27 08:32:09;;;;;;;2.53;1.35;;;17.10;99.90;;;;;;4215525;28;20218;-74
2022/12/27 08:34:11;;;;;;;1.90;1.27;;;17.20;99.90;;;;;;4215770;28;20227;-74
2022/12/27 08:36:14;;;;;;;2.08;1.27;;;17.20;99.90;;;;;;4213560;28;20210;-74
2022/12/27 08:38:17;;;;;;;2.08;1.35;;;17.20;99.90;;;;;;4198756;28;20585;-74
2022/12/27 08:40:21;;;;;;;2.10;1.20;;;17.20;99.90;;;;;;4207170;28;20220;-74
2022/12/27 08:42:23;;;;;;;2.83;1.58;;;17.30;99.90;;;;;;4213763;28;20355;-74
2022/12/27 08:44:26;;;;;;;2.03;1.33;;;17.30;99.90;;;;;;4211734;28;20227;-74
2022/12/27 08:46:28;;;;;;;3.72;1.50;;;17.20;99.90;;;;;;4205660;28;20219;-74
2022/12/27 08:48:32;;;;;;;3.63;1.40;;;17.30;99.90;;;;;;4210694;28;20280;-74
2022/12/27 08:50:34;;;;;;;2.05;1.10;;;17.30;99.90;;;;;;4212397;28;20277;-74
2022/12/27 08:52:37;;;;;;;2.85;1.35;;;17.30;99.90;;;;;;4215491;28;20240;-73
2022/12/27 08:54:39;;;;;;;2.25;1.30;;;17.30;99.90;;;;;;4209404;28;20260;-74
2022/12/27 08:56:43;;;;;;;1.98;1.30;;;17.30;99.90;;;;;;4205084;28;20253;-74
2022/12/27 08:58:45;;;;;;;3.40;1.35;;;17.30;99.90;;;;;;4197916;28;20280;-74
2022/12/27 09:00:48;;;;;;;2.67;1.20;;;17.30;99.90;;;;;;4205178;28;20594;-74
2022/12/27 09:02:50;;;;;;;1.50;0.93;;;17.30;99.90;;;;;;4213279;28;20265;-74
2022/12/27 09:04:52;;;;;;;2.10;1.40;;;17.30;99.90;;;;;;4214885;28;20210;-74
2022/12/27 09:06:55;;;;;;;2.97;1.23;;;17.30;99.90;;;;;;4208027;28;20211;-74
2022/12/27 09:08:58;;;;;;;3.13;1.50;;;17.40;99.90;;;;;;4205855;28;20647;-74
2022/12/27 09:11:08;;;;;;;3.38;1.40;;;17.40;99.90;;;;;;4205227;28;20288;-74
2022/12/27 09:13:12;;;;;;;1.58;1.08;;;17.30;99.90;;;;;;4205181;28;20222;-74
2022/12/27 09:15:15;;;;;;;2.05;1.50;;;17.40;99.90;;;;;;4214586;28;20268;-74
2022/12/27 09:17:17;;;;;;;2.20;1.30;;;17.40;99.90;;;;;;4214763;28;20323;-74
2022/12/27 09:19:20;;;;;;;3.47;1.50;;;17.40;99.90;;;;;;4208371;28;20203;-74
2022/12/27 09:21:24;;;;;;;2.70;1.45;;;17.40;99.90;;;;;;4212938;28;20214;-74
2022/12/27 09:23:26;;;;;;;2.40;1.20;;;17.40;99.90;;;;;;4214902;28;20214;-74
2022/12/27 09:25:28;;;;;;;1.58;1.20;;;17.40;99.90;;;;;;4214823;28;20279;-74
2022/12/27 09:27:30;;;;;;;1.85;1.38;;;17.40;99.90;;;;;;4214903;28;20260;-74
2022/12/27 09:29:34;;;;;;;2.63;1.60;;;17.40;99.90;;;;;;4211323;28;20264;-74
2022/12/27 09:31:37;;;;;;;4.43;1.45;;;17.40;99.90;;;;;;4208256;28;20902;-74
2022/12/27 09:33:39;;;;;;;3.58;1.65;;;17.40;99.90;;;;;;4214799;28;20275;-74
2022/12/27 09:35:42;;;;;;;1.80;1.30;;;17.50;99.90;;;;;;4203327;28;20218;-74
2022/12/27 09:37:44;;;;;;;2.63;1.70;;;17.50;99.90;;;;;;4214448;28;20210;-74
2022/12/27 09:39:46;;;;;;;2.75;1.40;;;17.50;99.90;;;;;;4199701;28;20211;-75
2022/12/27 09:41:58;;;;;;;2.92;1.50;;;17.50;99.90;;;;;;4208247;28;20222;-75
2022/12/27 09:44:04;;;;;;;3.22;1.40;;;17.40;99.90;;;;;;4211673;28;20593;-75
2022/12/27 09:46:13;;;;;;;4.55;1.35;;;17.50;99.90;;;;;;4198541;28;20207;-72
2022/12/27 09:48:24;;;;;;;2.10;1.38;;;17.50;99.90;;;;;;4205384;28;20214;-74
2022/12/27 09:50:31;;;;;;;3.33;1.55;;;17.50;99.90;;;;;;4210526;28;20210;-74
2022/12/27 09:52:40;;;;;;;4.55;1.75;;;17.40;99.90;;;;;;4202844;28;20211;-73
2022/12/27 09:54:54;;;;;;;4.68;1.85;;;17.40;99.90;;;;;;4214110;28;20904;-73
2022/12/27 09:56:59;;;;;;;5.93;1.88;;;17.40;99.90;;;;;;4205564;28;20609;-73
2022/12/27 09:59:07;;;;;;;4.07;1.88;;;17.20;99.90;;;;;;4209031;28;20238;-73
2022/12/27 10:01:29;;;;;;;4.70;1.83;;;17.20;99.90;;;;;;4208548;28;20205;-73
2022/12/27 10:03:32;;;;;;;4.78;1.88;;;17.20;99.90;;;;;;4210634;28;20267;-73
2022/12/27 10:05:36;;;;;;;3.85;1.70;;;17.40;99.90;;;;;;4199060;28;20276;-73
2022/12/27 10:07:48;;;;;;;6.68;1.90;;;17.40;99.90;;;;;;4199998;28;20280;-73
2022/12/27 10:09:59;;;;;;;3.85;1.88;;;17.50;99.90;;;;;;4213530;28;20295;-73
2022/12/27 10:12:10;;;;;;;10.88;2.10;;;17.60;99.90;;;;;;4209699;28;20222;-72
2022/12/27 10:14:23;;;;;;;6.88;1.90;;;17.60;99.90;;;;;;4212839;28;20218;-71
2022/12/27 10:16:32;;;;;;;7.43;2.10;;;17.70;99.90;;;;;;4203639;28;20301;-72
2022/12/27 10:18:47;;;;;;;6.68;1.88;;;17.60;99.90;;;;;;4213471;28;20247;-71
2022/12/27 10:21:04;;;;;;;4.13;2.00;;;17.70;99.90;;;;;;4212773;28;20275;-71
2022/12/27 10:23:11;;;;;;;8.13;1.90;;;17.70;99.90;;;;;;4210901;28;20276;-72
2022/12/27 10:25:16;;;;;;;6.15;1.80;;;17.80;99.90;;;;;;4211816;28;20283;-75
2022/12/27 10:27:23;;;;;;;6.05;2.10;;;17.80;99.90;;;;;;4206795;28;20218;-73
2022/12/27 10:29:27;;;;;;;5.07;1.75;;;17.80;99.90;;;;;;4207970;28;20308;-74
2022/12/27 10:31:31;;;;;;;4.75;1.80;;;17.80;99.90;;;;;;4212070;28;20226;-72
2022/12/27 10:33:35;;;;;;;9.27;2.35;;;17.90;99.90;;;;;;4212254;28;20225;-72
2022/12/27 10:35:37;;;;;;;3.58;2.00;;;17.90;99.90;;;;;;4212408;28;20263;-72
2022/12/27 10:37:40;;;;;;;6.13;2.03;;;18.00;99.90;;;;;;4209463;28;20223;-74
2022/12/27 10:39:43;;;;;;;5.85;1.75;;;17.90;99.90;;;;;;4206263;28;20265;-74
2022/12/27 10:41:57;;;;;;;6.65;1.90;;;18.00;99.90;;;;;;4206853;28;20211;-72
2022/12/27 10:43:59;;;;;;;6.82;2.15;;;17.90;99.90;;;;;;4212192;28;20283;-73
2022/12/27 10:46:12;;;;;;;7.28;1.92;;;18.00;99.90;;;;;;4206232;28;20339;-73
2022/12/27 10:48:21;;;;;;;5.82;1.60;;;18.00;99.90;;;;;;4210225;28;20210;-73
2022/12/27 10:50:28;;;;;;;7.38;2.05;;;18.20;99.90;;;;;;4207134;28;20227;-72
2022/12/27 10:52:34;;;;;;;2.63;1.45;;;18.20;99.90;;;;;;4202997;28;20219;-71
2022/12/27 10:54:50;;;;;;;4.32;1.98;;;18.20;99.90;;;;;;4212045;28;20218;-72
2022/12/27 10:56:54;;;;;;;8.52;2.70;;;18.20;99.90;;;;;;4206003;28;20214;-72
2022/12/27 10:59:07;;;;;;;4.63;1.80;;;18.10;99.90;;;;;;4206788;28;20299;-72
2022/12/27 11:01:17;;;;;;;7.25;1.88;;;18.20;99.90;;;;;;4208262;28;20218;-71
2022/12/27 11:03:21;;;;;;;5.18;1.90;;;18.10;99.90;;;;;;4211404;28;20657;-71
2022/12/27 11:05:28;;;;;;;5.30;1.95;;;18.20;99.90;;;;;;4208477;28;20300;-77
2022/12/27 11:07:34;;;;;;;6.75;1.95;;;18.30;99.90;;;;;;4205937;28;21048;-74
2022/12/27 11:09:37;;;;;;;7.40;2.15;;;18.30;99.90;;;;;;4207705;28;20238;-72
2022/12/27 11:11:40;;;;;;;2.95;1.83;;;18.20;99.90;;;;;;4208517;28;20218;-72
2022/12/27 11:13:42;;;;;;;6.72;2.28;;;18.10;99.90;;;;;;4209445;28;20256;-72
2022/12/27 11:15:54;;;;;;;5.18;1.50;;;18.20;99.90;;;;;;4207837;28;20508;-72
2022/12/27 11:18:00;;;;;;;5.68;1.98;;;18.30;99.90;;;;;;4209428;28;20214;-71
2022/12/27 11:20:17;;;;;;;3.03;1.42;;;18.30;99.90;;;;;;4208677;28;20252;-73
2022/12/27 11:22:20;;;;;;;3.42;1.75;;;18.40;99.90;;;;;;4211222;28;20859;-73
2022/12/27 11:24:23;;;;;;;4.03;2.40;;;18.40;99.90;;;;;;4204071;28;20207;-73
2022/12/27 11:26:27;;;;;;;7.45;1.98;;;18.40;99.90;;;;;;4211554;28;20217;-73
2022/12/27 11:28:36;;;;;;;10.80;1.80;;;18.30;99.90;;;;;;4206232;28;20219;-73
2022/12/27 11:30:40;;;;;;;9.10;2.38;;;18.30;99.90;;;;;;4202826;28;20284;-73
2022/12/27 11:32:45;;;;;;;4.35;1.60;;;18.30;99.90;;;;;;4212382;28;20275;-73
2022/12/27 11:34:47;;;;;;;6.75;2.17;;;18.30;99.90;;;;;;4202726;28;20607;-73
2022/12/27 11:36:55;;;;;;;4.50;1.65;;;18.30;99.90;;;;;;4213116;28;20211;-73
2022/12/27 11:38:59;;;;;;;3.78;1.90;;;18.40;99.90;;;;;;4205467;28;20241;-73
2022/12/27 11:41:05;;;;;;;6.78;2.28;;;18.30;99.90;;;;;;4212726;28;20207;-73
2022/12/27 11:43:12;;;;;;;4.68;1.77;;;18.30;99.90;;;;;;4212671;28;20268;-73
2022/12/27 11:45:22;;;;;;;5.50;1.95;;;18.30;99.90;;;;;;4212729;28;20607;-73
2022/12/27 11:47:31;;;;;;;3.85;1.95;;;18.30;99.90;;;;;;4208677;28;20219;-72
2022/12/27 11:49:38;;;;;;;3.63;1.50;;;18.30;99.90;;;;;;4203638;28;20255;-75
2022/12/27 11:52:07;;;;;;;4.80;1.80;;;18.40;99.90;;;;;;4209676;28;20615;-72
2022/12/27 11:54:20;;;;;;;5.07;1.88;;;18.50;99.90;;;;;;4203696;28;20264;-73
2022/12/27 11:56:26;;;;;;;6.00;2.05;;;18.50;99.90;;;;;;4210341;28;20214;-72
2022/12/27 11:58:55;;;;;;;4.85;1.95;;;18.60;99.90;;;;;;4209357;28;20230;-72
2022/12/27 12:01:14;;;;;;;5.75;1.98;;;18.50;99.90;;;;;;4206275;28;20211;-73
2022/12/27 12:03:54;;;;;;;5.40;2.15;;;18.50;99.90;;;;;;4209666;28;20211;-71
2022/12/27 12:06:11;;;;;;;5.45;2.20;;;18.50;99.90;;;;;;4195621;28;20658;-74
2022/12/27 12:08:44;;;;;;;4.00;1.70;;;18.60;99.90;;;;;;4206264;28;20214;-74
2022/12/27 12:10:53;;;;;;;5.63;1.50;;;18.50;99.90;;;;;;4201798;28;20759;-76
2022/12/27 12:13:27;;;;;;;5.78;1.90;;;18.60;99.90;;;;;;4206661;28;20231;-75
2022/12/27 12:16:03;;;;;;;5.03;1.80;;;18.60;99.90;;;;;;4208677;28;20222;-75
2022/12/27 12:18:26;;;;;;;4.15;2.10;;;18.60;99.90;;;;;;4208936;28;20217;-74
2022/12/27 12:20:55;;;;;;;5.57;2.08;;;18.60;99.90;;;;;;4209437;28;20275;-76
2022/12/27 12:23:10;;;;;;;5.60;1.95;;;18.70;99.90;;;;;;4206730;28;20276;-74
2022/12/27 12:25:50;;;;;;;4.30;1.80;;;18.70;99.90;;;;;;4209429;28;20214;-74
2022/12/27 12:28:19;;;;;;;7.60;2.22;;;18.70;99.90;;;;;;4174796;28;20226;-74
2022/12/27 12:30:37;;;;;;;9.35;2.50;;;18.70;99.90;;;;;;4203075;28;20304;-74
2022/12/27 12:32:53;;;;;;;7.45;2.03;;;18.70;99.90;;;;;;4206594;28;20264;-75
2022/12/27 12:35:18;;;;;;;11.63;2.40;;;18.80;99.90;;;;;;4209864;28;20708;-75
2022/12/27 12:37:37;;;;;;;6.03;1.88;;;18.90;99.90;;;;;;4197498;28;20218;-76